createdAt,value
2022-08-01T00:00:39.862Z,21.62
2022-08-01T00:01:44.063Z,21.18
2022-08-01T00:02:45.918Z,20.73
2022-08-01T00:03:47.583Z,20.30
2022-08-01T00:04:49.262Z,19.90
2022-08-01T00:05:50.891Z,19.64
2022-08-01T00:06:52.558Z,19.73
2022-08-01T00:07:54.269Z,20.08
2022-08-01T00:08:56.334Z,20.47
2022-08-01T00:09:57.973Z,20.82
2022-08-01T00:11:02.781Z,21.10
2022-08-01T00:12:05.881Z,21.34
2022-08-01T00:13:07.523Z,21.52
2022-08-01T00:14:10.593Z,21.67
2022-08-01T00:15:15.080Z,21.79
2022-08-01T00:16:16.884Z,21.73
2022-08-01T00:17:18.630Z,21.37
2022-08-01T00:18:20.289Z,20.89
2022-08-01T00:19:21.942Z,20.40
2022-08-01T00:20:23.610Z,19.93
2022-08-01T00:21:25.294Z,19.51
2022-08-01T00:22:27.291Z,19.27
2022-08-01T00:23:28.979Z,19.39
2022-08-01T00:24:30.708Z,19.72
2022-08-01T00:25:33.955Z,20.08
2022-08-01T00:26:36.315Z,20.38
2022-08-01T00:27:38.103Z,20.60
2022-08-01T00:28:40.487Z,20.77
2022-08-01T00:30:09.801Z,20.91
2022-08-01T00:31:03.934Z,21.06
2022-08-01T00:32:06.169Z,21.15
2022-08-01T00:33:08.075Z,21.24
2022-08-01T00:34:09.741Z,21.31
2022-08-01T00:35:11.634Z,21.27
2022-08-01T00:36:13.459Z,20.96
2022-08-01T00:37:16.209Z,20.48
2022-08-01T00:38:17.918Z,19.97
2022-08-01T00:39:19.585Z,19.52
2022-08-01T00:40:21.337Z,19.13
2022-08-01T00:41:23.022Z,19.04
2022-08-01T00:42:24.771Z,19.28
2022-08-01T00:43:26.554Z,19.63
2022-08-01T00:44:28.299Z,19.97
2022-08-01T00:45:30.039Z,20.25
2022-08-01T00:46:32.406Z,20.47
2022-08-01T00:47:34.133Z,20.64
2022-08-01T00:48:35.992Z,20.78
2022-08-01T00:49:37.804Z,20.89
2022-08-01T00:50:39.821Z,20.99
2022-08-01T00:51:41.815Z,21.06
2022-08-01T00:52:51.526Z,21.10
2022-08-01T00:53:54.036Z,20.94
2022-08-01T00:54:56.817Z,20.51
2022-08-01T00:55:58.541Z,20.01
2022-08-01T00:57:01.071Z,19.52
2022-08-01T00:58:05.703Z,19.08
2022-08-01T00:59:09.468Z,18.75
2022-08-01T01:00:12.259Z,18.81
2022-08-01T01:01:14.162Z,19.13
2022-08-01T01:02:16.073Z,19.47
2022-08-01T01:03:17.801Z,19.77
2022-08-01T01:04:19.477Z,20.03
2022-08-01T01:05:21.792Z,20.23
2022-08-01T01:06:29.262Z,20.39
2022-08-01T01:07:49.947Z,20.52
2022-08-01T01:09:17.237Z,20.64
2022-08-01T01:10:22.902Z,20.74
2022-08-01T01:11:36.225Z,20.79
2022-08-01T01:12:53.190Z,20.72
2022-08-01T01:14:06.133Z,20.26
2022-08-01T01:15:12.651Z,19.66
2022-08-01T01:16:18.374Z,19.16
2022-08-01T01:17:31.244Z,18.69
2022-08-01T01:19:01.522Z,18.50
2022-08-01T01:20:06.875Z,18.84
2022-08-01T01:21:17.440Z,19.20
2022-08-01T01:22:47.224Z,19.55
2022-08-01T01:24:22.957Z,19.91
2022-08-01T01:25:50.811Z,20.19
2022-08-01T01:27:19.181Z,20.37
2022-08-01T01:29:22.529Z,20.51
2022-08-01T01:30:29.084Z,20.69
2022-08-01T01:31:38.596Z,20.71
2022-08-01T01:32:45.845Z,20.39
2022-08-01T01:33:50.644Z,19.89
2022-08-01T01:34:56.394Z,19.38
2022-08-01T01:36:04.277Z,18.92
2022-08-01T01:37:18.669Z,18.53
2022-08-01T01:38:34.784Z,18.62
2022-08-01T01:39:39.528Z,19.03
2022-08-01T01:40:49.865Z,19.44
2022-08-01T01:41:55.727Z,19.74
2022-08-01T01:42:58.370Z,20.00
2022-08-01T01:44:02.959Z,20.19
2022-08-01T01:45:08.318Z,20.35
2022-08-01T01:46:13.441Z,20.49
2022-08-01T01:47:18.089Z,20.60
2022-08-01T01:48:22.387Z,20.69
2022-08-01T01:49:27.909Z,20.76
2022-08-01T01:50:31.605Z,20.66
2022-08-01T01:51:34.579Z,20.29
2022-08-01T01:52:39.056Z,19.80
2022-08-01T01:53:42.590Z,19.28
2022-08-01T01:54:49.707Z,18.81
2022-08-01T01:55:54.678Z,18.42
2022-08-01T01:57:00.659Z,18.45
2022-08-01T01:58:02.686Z,18.80
2022-08-01T01:59:05.573Z,19.18
2022-08-01T02:00:09.529Z,19.51
2022-08-01T02:01:14.626Z,19.76
2022-08-01T02:02:18.745Z,19.96
2022-08-01T02:03:23.050Z,20.10
2022-08-01T02:04:28.081Z,20.21
2022-08-01T02:05:31.012Z,20.31
2022-08-01T02:06:34.577Z,20.42
2022-08-01T02:07:39.645Z,20.51
2022-08-01T02:08:44.928Z,20.61
2022-08-01T02:09:48.548Z,20.67
2022-08-01T02:11:13.058Z,20.59
2022-08-01T02:12:18.678Z,20.07
2022-08-01T02:13:21.414Z,19.55
2022-08-01T02:14:24.787Z,19.10
2022-08-01T02:15:29.043Z,18.68
2022-08-01T02:16:35.958Z,18.43
2022-08-01T02:17:44.663Z,18.61
2022-08-01T02:18:47.012Z,19.00
2022-08-01T02:19:49.193Z,19.37
2022-08-01T02:20:54.490Z,19.67
2022-08-01T02:22:08.908Z,19.93
2022-08-01T02:23:14.209Z,20.16
2022-08-01T02:24:30.606Z,20.32
2022-08-01T02:25:39.622Z,20.47
2022-08-01T02:27:07.647Z,20.61
2022-08-01T02:28:33.495Z,20.57
2022-08-01T02:29:43.024Z,20.07
2022-08-01T02:30:49.524Z,19.53
2022-08-01T02:31:55.609Z,19.05
2022-08-01T02:33:15.794Z,18.61
2022-08-01T02:34:20.779Z,18.34
2022-08-01T02:35:29.103Z,18.58
2022-08-01T02:36:36.285Z,18.99
2022-08-01T02:37:41.928Z,19.38
2022-08-01T02:38:48.027Z,19.71
2022-08-01T02:39:53.700Z,19.94
2022-08-01T02:41:00.826Z,20.15
2022-08-01T02:42:07.938Z,20.32
2022-08-01T02:43:11.809Z,20.46
2022-08-01T02:44:24.558Z,20.51
2022-08-01T02:45:27.826Z,20.24
2022-08-01T02:46:52.726Z,19.78
2022-08-01T02:48:02.808Z,19.12
2022-08-01T02:49:08.788Z,18.64
2022-08-01T02:50:13.459Z,18.28
2022-08-01T02:51:18.738Z,18.32
2022-08-01T02:52:24.205Z,18.68
2022-08-01T02:53:39.126Z,19.09
2022-08-01T02:54:51.088Z,19.53
2022-08-01T02:55:54.955Z,19.83
2022-08-01T02:56:58.477Z,20.05
2022-08-01T02:58:02.896Z,20.23
2022-08-01T02:59:10.165Z,20.36
2022-08-01T03:00:12.534Z,20.46
2022-08-01T03:01:19.972Z,20.42
2022-08-01T03:02:25.228Z,20.05
2022-08-01T03:03:27.266Z,19.54
2022-08-01T03:04:29.687Z,19.05
2022-08-01T03:05:33.966Z,18.60
2022-08-01T03:06:38.345Z,18.16
2022-08-01T03:07:42.688Z,18.00
2022-08-01T03:08:47.574Z,18.23
2022-08-01T03:09:51.677Z,18.64
2022-08-01T03:10:56.755Z,19.01
2022-08-01T03:12:05.539Z,19.33
2022-08-01T03:13:10.588Z,19.60
2022-08-01T03:14:15.245Z,19.80
2022-08-01T03:15:19.702Z,19.97
2022-08-01T03:16:25.211Z,20.11
2022-08-01T03:17:31.358Z,20.23
2022-08-01T03:18:36.081Z,20.32
2022-08-01T03:19:40.183Z,20.27
2022-08-01T03:20:44.510Z,19.92
2022-08-01T03:21:49.429Z,19.44
2022-08-01T03:22:54.408Z,18.95
2022-08-01T03:24:01.536Z,18.49
2022-08-01T03:25:04.526Z,18.12
2022-08-01T03:26:07.341Z,18.17
2022-08-01T03:27:10.111Z,18.53
2022-08-01T03:28:16.988Z,18.94
2022-08-01T03:29:26.478Z,19.30
2022-08-01T03:30:30.835Z,19.62
2022-08-01T03:31:36.307Z,19.86
2022-08-01T03:32:38.267Z,20.06
2022-08-01T03:33:40.008Z,20.21
2022-08-01T03:34:41.936Z,20.32
2022-08-01T03:35:55.231Z,20.38
2022-08-01T03:37:28.189Z,20.11
2022-08-01T03:38:36.573Z,19.43
2022-08-01T03:39:45.326Z,18.91
2022-08-01T03:41:12.696Z,18.43
2022-08-01T03:42:20.128Z,18.02
2022-08-01T03:43:37.613Z,18.21
2022-08-01T03:44:42.290Z,18.71
2022-08-01T03:45:54.201Z,19.09
2022-08-01T03:47:02.552Z,19.44
2022-08-01T03:48:14.224Z,19.71
2022-08-01T03:49:22.592Z,19.93
2022-08-01T03:50:26.055Z,20.09
2022-08-01T03:51:30.627Z,20.22
2022-08-01T03:52:35.910Z,20.34
2022-08-01T03:53:42.462Z,20.45
2022-08-01T03:54:54.433Z,20.50
2022-08-01T03:55:59.577Z,20.22
2022-08-01T03:57:02.875Z,19.74
2022-08-01T03:58:09.847Z,19.26
2022-08-01T03:59:13.059Z,18.79
2022-08-01T04:00:19.284Z,18.36
2022-08-01T04:01:21.940Z,18.21
2022-08-01T04:02:24.579Z,18.47
2022-08-01T04:03:26.996Z,18.85
2022-08-01T04:04:30.062Z,19.20
2022-08-01T04:05:32.379Z,19.51
2022-08-01T04:06:34.129Z,19.74
2022-08-01T04:07:40.224Z,19.94
2022-08-01T04:08:42.456Z,20.11
2022-08-01T04:09:44.269Z,20.25
2022-08-01T04:10:46.060Z,20.37
2022-08-01T04:11:48.482Z,20.49
2022-08-01T04:12:50.426Z,20.59
2022-08-01T04:13:54.158Z,20.69
2022-08-01T04:14:57.097Z,20.67
2022-08-01T04:15:58.729Z,20.35
2022-08-01T04:17:00.361Z,19.89
2022-08-01T04:18:02.065Z,19.43
2022-08-01T04:19:04.209Z,19.00
2022-08-01T04:20:06.444Z,18.65
2022-08-01T04:21:08.673Z,18.63
2022-08-01T04:22:16.560Z,18.92
2022-08-01T04:23:27.032Z,19.33
2022-08-01T04:24:32.651Z,19.72
2022-08-01T04:25:38.121Z,20.01
2022-08-01T04:26:42.712Z,20.23
2022-08-01T04:27:51.966Z,20.41
2022-08-01T04:28:56.388Z,20.57
2022-08-01T04:30:00.328Z,20.69
2022-08-01T04:31:06.614Z,20.80
2022-08-01T04:32:13.861Z,20.89
2022-08-01T04:33:18.854Z,20.95
2022-08-01T04:34:25.375Z,20.84
2022-08-01T04:36:01.888Z,20.44
2022-08-01T04:36:55.458Z,19.78
2022-08-01T04:38:00.321Z,19.31
2022-08-01T04:39:04.870Z,18.91
2022-08-01T04:40:09.540Z,18.82
2022-08-01T04:41:14.657Z,19.08
2022-08-01T04:42:17.217Z,19.46
2022-08-01T04:43:27.797Z,19.85
2022-08-01T04:44:32.578Z,20.14
2022-08-01T04:45:37.368Z,20.39
2022-08-01T04:46:41.311Z,20.61
2022-08-01T04:47:44.696Z,20.77
2022-08-01T04:48:47.194Z,20.90
2022-08-01T04:49:49.831Z,21.00
2022-08-01T04:50:52.577Z,21.10
2022-08-01T04:51:58.717Z,21.18
2022-08-01T04:53:00.392Z,21.26
2022-08-01T04:54:02.732Z,21.32
2022-08-01T04:55:07.176Z,21.39
2022-08-01T04:56:09.121Z,21.46
2022-08-01T04:57:10.830Z,21.52
2022-08-01T04:58:17.676Z,21.60
2022-08-01T04:59:39.650Z,21.68
2022-08-01T05:00:41.562Z,21.73
2022-08-01T05:01:43.251Z,21.66
2022-08-01T05:02:45.088Z,21.32
2022-08-01T05:03:46.762Z,20.86
2022-08-01T05:04:48.419Z,20.39
2022-08-01T05:05:50.080Z,19.94
2022-08-01T05:06:51.731Z,19.70
2022-08-01T05:07:53.386Z,19.83
2022-08-01T05:08:55.265Z,20.14
2022-08-01T05:09:56.940Z,20.48
2022-08-01T05:10:58.645Z,20.79
2022-08-01T05:12:02.868Z,21.06
2022-08-01T05:13:04.763Z,21.29
2022-08-01T05:14:07.576Z,21.47
2022-08-01T05:15:15.121Z,21.63
2022-08-01T05:16:17.950Z,21.79
2022-08-01T05:17:19.628Z,21.90
2022-08-01T05:18:26.421Z,22.00
2022-08-01T05:19:32.843Z,22.08
2022-08-01T05:20:34.604Z,22.14
2022-08-01T05:21:38.331Z,22.17
2022-08-01T05:22:40.460Z,22.16
2022-08-01T05:23:43.567Z,22.20
2022-08-01T05:24:45.472Z,22.25
2022-08-01T05:25:56.119Z,22.31
2022-08-01T05:27:00.891Z,22.41
2022-08-01T05:28:05.065Z,22.47
2022-08-01T05:29:07.859Z,22.55
2022-08-01T05:30:11.086Z,22.59
2022-08-01T05:31:12.739Z,22.40
2022-08-01T05:32:14.545Z,21.98
2022-08-01T05:33:16.219Z,21.50
2022-08-01T05:34:17.926Z,21.04
2022-08-01T05:35:19.577Z,20.67
2022-08-01T05:36:21.238Z,20.58
2022-08-01T05:37:22.911Z,20.81
2022-08-01T05:38:24.536Z,21.14
2022-08-01T05:39:26.214Z,21.45
2022-08-01T05:40:27.890Z,21.72
2022-08-01T05:41:29.696Z,21.96
2022-08-01T05:42:31.430Z,22.14
2022-08-01T05:43:33.080Z,22.27
2022-08-01T05:44:34.740Z,22.39
2022-08-01T05:45:36.418Z,22.48
2022-08-01T05:46:39.113Z,22.58
2022-08-01T05:47:42.843Z,22.68
2022-08-01T05:48:44.858Z,22.76
2022-08-01T05:49:47.008Z,22.82
2022-08-01T05:50:48.898Z,22.89
2022-08-01T05:51:50.566Z,22.97
2022-08-01T05:52:52.205Z,23.03
2022-08-01T05:53:54.406Z,23.00
2022-08-01T05:54:56.004Z,22.70
2022-08-01T05:55:57.702Z,22.27
2022-08-01T05:57:02.543Z,21.84
2022-08-01T05:58:04.462Z,21.42
2022-08-01T05:59:06.107Z,21.08
2022-08-01T06:00:08.512Z,21.00
2022-08-01T06:01:13.497Z,21.24
2022-08-01T06:02:15.288Z,21.60
2022-08-01T06:03:17.020Z,21.93
2022-08-01T06:04:18.763Z,22.22
2022-08-01T06:05:20.488Z,22.45
2022-08-01T06:06:25.312Z,22.63
2022-08-01T06:07:27.349Z,22.79
2022-08-01T06:08:29.555Z,22.94
2022-08-01T06:09:31.874Z,23.07
2022-08-01T06:10:33.765Z,23.20
2022-08-01T06:11:35.802Z,23.30
2022-08-01T06:12:37.939Z,23.37
2022-08-01T06:13:48.320Z,23.45
2022-08-01T06:14:50.580Z,23.50
2022-08-01T06:15:52.290Z,23.32
2022-08-01T06:16:54.070Z,22.93
2022-08-01T06:17:56.482Z,22.46
2022-08-01T06:18:58.135Z,21.99
2022-08-01T06:20:00.456Z,21.58
2022-08-01T06:21:02.103Z,21.21
2022-08-01T06:22:04.256Z,21.01
2022-08-01T06:23:22.464Z,21.17
2022-08-01T06:24:28.201Z,21.64
2022-08-01T06:25:30.406Z,21.99
2022-08-01T06:26:32.292Z,22.31
2022-08-01T06:27:36.407Z,22.59
2022-08-01T06:28:39.465Z,22.83
2022-08-01T06:29:41.182Z,23.01
2022-08-01T06:30:55.403Z,23.21
2022-08-01T06:31:57.057Z,23.38
2022-08-01T06:32:59.624Z,23.54
2022-08-01T06:34:01.407Z,23.67
2022-08-01T06:35:03.398Z,23.80
2022-08-01T06:36:05.166Z,23.90
2022-08-01T06:37:07.038Z,23.84
2022-08-01T06:38:09.504Z,23.52
2022-08-01T06:39:11.134Z,23.09
2022-08-01T06:40:17.188Z,22.67
2022-08-01T06:41:19.205Z,22.26
2022-08-01T06:42:20.870Z,21.91
2022-08-01T06:43:22.643Z,21.61
2022-08-01T06:44:24.289Z,21.56
2022-08-01T06:45:27.847Z,21.83
2022-08-01T06:46:32.555Z,22.23
2022-08-01T06:47:38.281Z,22.65
2022-08-01T06:48:40.366Z,22.98
2022-08-01T06:49:42.112Z,23.24
2022-08-01T06:50:43.766Z,23.45
2022-08-01T06:51:45.506Z,23.63
2022-08-01T06:52:47.231Z,23.77
2022-08-01T06:53:48.866Z,23.85
2022-08-01T06:54:50.793Z,23.67
2022-08-01T06:55:52.430Z,23.30
2022-08-01T06:56:54.052Z,22.92
2022-08-01T06:57:55.693Z,22.53
2022-08-01T06:59:01.753Z,22.21
2022-08-01T07:00:09.693Z,21.91
2022-08-01T07:01:11.477Z,21.86
2022-08-01T07:02:13.189Z,22.16
2022-08-01T07:03:14.938Z,22.58
2022-08-01T07:04:16.577Z,22.98
2022-08-01T07:05:18.530Z,23.30
2022-08-01T07:06:20.269Z,23.58
2022-08-01T07:07:22.004Z,23.82
2022-08-01T07:08:23.865Z,24.03
2022-08-01T07:09:25.665Z,24.20
2022-08-01T07:10:27.368Z,24.14
2022-08-01T07:11:29.005Z,23.85
2022-08-01T07:12:30.661Z,23.46
2022-08-01T07:13:44.076Z,23.05
2022-08-01T07:14:47.166Z,22.61
2022-08-01T07:15:48.806Z,22.30
2022-08-01T07:16:51.304Z,22.03
2022-08-01T07:17:53.261Z,21.80
2022-08-01T07:18:54.945Z,21.64
2022-08-01T07:19:57.808Z,21.78
2022-08-01T07:20:59.649Z,22.20
2022-08-01T07:22:01.322Z,22.69
2022-08-01T07:23:06.095Z,23.16
2022-08-01T07:24:14.486Z,23.53
2022-08-01T07:25:16.866Z,23.85
2022-08-01T07:26:18.541Z,24.03
2022-08-01T07:27:25.540Z,23.94
2022-08-01T07:28:29.343Z,23.62
2022-08-01T07:29:31.017Z,23.27
2022-08-01T07:30:32.672Z,22.96
2022-08-01T07:31:34.337Z,22.68
2022-08-01T07:32:36.062Z,22.45
2022-08-01T07:33:47.787Z,22.25
2022-08-01T07:34:51.220Z,22.06
2022-08-01T07:35:52.934Z,22.04
2022-08-01T07:36:54.649Z,22.37
2022-08-01T07:37:56.315Z,22.89
2022-08-01T07:38:57.978Z,23.40
2022-08-01T07:40:00.108Z,23.83
2022-08-01T07:41:01.823Z,24.20
2022-08-01T07:42:07.331Z,24.49
2022-08-01T07:43:10.157Z,24.56
2022-08-01T07:44:11.810Z,24.34
2022-08-01T07:45:14.185Z,24.03
2022-08-01T07:46:17.170Z,23.70
2022-08-01T07:47:25.264Z,23.41
2022-08-01T07:48:28.030Z,23.14
2022-08-01T07:49:30.032Z,22.92
2022-08-01T07:50:34.165Z,22.75
2022-08-01T07:51:36.010Z,22.59
2022-08-01T07:52:37.710Z,22.47
2022-08-01T07:53:39.428Z,22.36
2022-08-01T07:54:41.086Z,22.27
2022-08-01T07:55:43.302Z,22.19
2022-08-01T07:56:47.741Z,22.21
2022-08-01T07:57:49.593Z,22.56
2022-08-01T07:58:51.459Z,23.10
2022-08-01T07:59:53.305Z,23.66
2022-08-01T08:00:54.982Z,24.13
2022-08-01T08:01:56.755Z,24.51
2022-08-01T08:03:00.276Z,24.65
2022-08-01T08:04:02.228Z,24.49
2022-08-01T08:05:04.843Z,24.23
2022-08-01T08:06:07.383Z,23.95
2022-08-01T08:07:09.475Z,23.71
2022-08-01T08:08:12.444Z,23.51
2022-08-01T08:09:15.678Z,23.33
2022-08-01T08:10:17.504Z,23.18
2022-08-01T08:11:19.140Z,23.06
2022-08-01T08:12:28.477Z,22.94
2022-08-01T08:13:31.598Z,22.80
2022-08-01T08:14:33.432Z,22.70
2022-08-01T08:15:35.236Z,22.61
2022-08-01T08:16:36.941Z,22.52
2022-08-01T08:17:38.683Z,22.44
2022-08-01T08:18:40.421Z,22.38
2022-08-01T08:19:42.121Z,22.32
2022-08-01T08:20:44.714Z,22.26
2022-08-01T08:21:46.434Z,22.22
2022-08-01T08:22:48.098Z,22.19
2022-08-01T08:24:08.092Z,22.17
2022-08-01T08:25:12.525Z,22.16
2022-08-01T08:26:14.164Z,22.15
2022-08-01T08:27:16.171Z,22.14
2022-08-01T08:28:17.967Z,22.13
2022-08-01T08:29:20.175Z,22.11
2022-08-01T08:30:22.000Z,22.11
2022-08-01T08:31:25.621Z,22.10
2022-08-01T08:32:45.964Z,22.09
2022-08-01T08:33:47.606Z,22.09
2022-08-01T08:34:49.282Z,22.08
2022-08-01T08:35:53.652Z,22.08
2022-08-01T08:36:58.866Z,22.08
2022-08-01T08:38:00.839Z,22.10
2022-08-01T08:39:04.333Z,22.13
2022-08-01T08:40:07.447Z,22.16
2022-08-01T08:41:10.628Z,22.19
2022-08-01T08:42:12.913Z,22.23
2022-08-01T08:43:17.225Z,22.25
2022-08-01T08:44:21.068Z,22.27
2022-08-01T08:45:23.162Z,22.29
2022-08-01T08:46:47.562Z,22.30
2022-08-01T08:47:51.030Z,22.30
2022-08-01T08:48:53.469Z,22.30
2022-08-01T08:49:57.493Z,22.33
2022-08-01T08:51:02.353Z,22.36
2022-08-01T08:52:08.899Z,22.39
2022-08-01T08:53:18.363Z,22.42
2022-08-01T08:54:30.851Z,22.45
2022-08-01T08:55:33.143Z,22.49
2022-08-01T08:56:56.102Z,22.54
2022-08-01T08:57:58.834Z,22.56
2022-08-01T08:59:02.125Z,22.60
2022-08-01T09:00:04.652Z,22.65
2022-08-01T09:01:08.061Z,22.70
2022-08-01T09:02:10.799Z,22.77
2022-08-01T09:03:13.290Z,22.82
2022-08-01T09:04:15.513Z,22.87
2022-08-01T09:05:19.833Z,22.92
2022-08-01T09:06:21.753Z,22.98
2022-08-01T09:07:26.333Z,23.05
2022-08-01T09:08:28.045Z,23.10
2022-08-01T09:09:29.723Z,23.12
2022-08-01T09:10:31.401Z,23.13
2022-08-01T09:11:34.901Z,23.15
2022-08-01T09:12:38.562Z,23.16
2022-08-01T09:13:45.279Z,23.17
2022-08-01T09:14:50.647Z,23.19
2022-08-01T09:15:54.974Z,23.21
2022-08-01T09:17:11.799Z,23.24
2022-08-01T09:18:41.516Z,23.28
2022-08-01T09:19:50.255Z,23.32
2022-08-01T09:20:51.970Z,23.35
2022-08-01T09:22:02.719Z,23.37
2022-08-01T09:23:04.742Z,23.39
2022-08-01T09:24:18.715Z,23.40
2022-08-01T09:25:51.529Z,23.42
2022-08-01T09:26:55.129Z,23.44
2022-08-01T09:28:07.281Z,23.48
2022-08-01T09:29:34.702Z,23.49
2022-08-01T09:30:40.782Z,23.55
2022-08-01T09:31:47.713Z,23.59
2022-08-01T09:32:55.845Z,23.63
2022-08-01T09:34:05.067Z,23.68
2022-08-01T09:35:36.241Z,23.72
2022-08-01T09:36:45.746Z,23.79
2022-08-01T09:37:47.542Z,23.83
2022-08-01T09:38:51.550Z,23.88
2022-08-01T09:39:58.421Z,23.92
2022-08-01T09:41:01.873Z,23.96
2022-08-01T09:42:28.343Z,24.00
2022-08-01T09:43:32.759Z,24.05
2022-08-01T09:44:44.757Z,24.07
2022-08-01T09:45:49.132Z,24.10
2022-08-01T09:46:55.044Z,24.12
2022-08-01T09:47:56.815Z,24.14
2022-08-01T09:49:02.271Z,24.16
2022-08-01T09:50:11.235Z,24.19
2022-08-01T09:51:13.971Z,24.23
2022-08-01T09:52:35.630Z,24.29
2022-08-01T09:53:43.452Z,24.34
2022-08-01T09:55:00.690Z,24.40
2022-08-01T09:56:13.520Z,24.44
2022-08-01T09:57:18.899Z,24.44
2022-08-01T09:58:21.614Z,24.43
2022-08-01T09:59:56.748Z,24.42
2022-08-01T10:01:01.155Z,24.42
2022-08-01T10:02:02.825Z,24.44
2022-08-01T10:03:25.399Z,24.46
2022-08-01T10:04:28.505Z,24.48
2022-08-01T10:05:37.158Z,24.48
2022-08-01T10:06:43.563Z,24.52
2022-08-01T10:08:07.943Z,24.55
2022-08-01T10:09:10.291Z,24.61
2022-08-01T10:10:16.054Z,24.63
2022-08-01T10:11:18.723Z,24.67
2022-08-01T10:12:24.658Z,24.68
2022-08-01T10:13:36.571Z,24.70
2022-08-01T10:14:41.007Z,24.72
2022-08-01T10:15:43.551Z,24.76
2022-08-01T10:16:53.621Z,24.79
2022-08-01T10:18:02.170Z,24.81
2022-08-01T10:19:14.567Z,24.85
2022-08-01T10:20:30.512Z,24.88
2022-08-01T10:21:56.713Z,24.91
2022-08-01T10:23:05.844Z,24.95
2022-08-01T10:24:12.105Z,24.99
2022-08-01T10:25:18.800Z,25.04
2022-08-01T10:26:41.953Z,25.10
2022-08-01T10:27:46.484Z,25.13
2022-08-01T10:28:49.844Z,25.17
2022-08-01T10:30:05.140Z,25.19
2022-08-01T10:31:12.582Z,25.21
2022-08-01T10:32:18.289Z,25.24
2022-08-01T10:33:51.200Z,25.25
2022-08-01T10:34:46.480Z,25.25
2022-08-01T10:35:48.635Z,25.27
2022-08-01T10:36:50.636Z,25.31
2022-08-01T10:37:57.487Z,25.34
2022-08-01T10:38:59.560Z,25.38
2022-08-01T10:40:28.695Z,25.43
2022-08-01T10:41:27.394Z,25.48
2022-08-01T10:42:30.322Z,25.52
2022-08-01T10:43:32.213Z,25.56
2022-08-01T10:44:35.022Z,25.62
2022-08-01T10:45:37.037Z,25.69
2022-08-01T10:46:40.722Z,25.76
2022-08-01T10:48:14.270Z,25.83
2022-08-01T10:49:21.274Z,25.93
2022-08-01T10:50:34.695Z,26.00
2022-08-01T10:51:51.267Z,26.06
2022-08-01T10:53:15.256Z,26.13
2022-08-01T10:54:27.836Z,26.17
2022-08-01T10:55:29.603Z,26.20
2022-08-01T10:56:41.715Z,26.25
2022-08-01T10:57:52.639Z,26.32
2022-08-01T10:59:06.088Z,26.37
2022-08-01T11:00:09.339Z,26.40
2022-08-01T11:01:30.450Z,26.43
2022-08-01T11:02:41.658Z,26.47
2022-08-01T11:03:58.369Z,26.52
2022-08-01T11:05:14.332Z,26.58
2022-08-01T11:06:18.611Z,26.65
2022-08-01T11:07:35.564Z,26.68
2022-08-01T11:08:39.241Z,26.71
2022-08-01T11:09:50.849Z,26.71
2022-08-01T11:11:02.228Z,26.71
2022-08-01T11:12:08.170Z,26.73
2022-08-01T11:13:15.479Z,26.77
2022-08-01T11:14:22.677Z,26.79
2022-08-01T11:15:31.499Z,26.82
2022-08-01T11:16:36.366Z,26.85
2022-08-01T11:17:48.466Z,26.87
2022-08-01T11:18:54.191Z,26.88
2022-08-01T11:20:19.266Z,26.90
2022-08-01T11:21:58.918Z,26.97
2022-08-01T11:22:58.527Z,27.01
2022-08-01T11:24:00.227Z,27.06
2022-08-01T11:25:02.260Z,27.10
2022-08-01T11:26:06.040Z,27.14
2022-08-01T11:27:33.553Z,27.16
2022-08-01T11:28:36.856Z,27.14
2022-08-01T11:29:42.229Z,27.11
2022-08-01T11:30:49.450Z,27.10
2022-08-01T11:31:52.739Z,27.06
2022-08-01T11:33:12.809Z,27.00
2022-08-01T11:34:16.107Z,26.95
2022-08-01T11:35:21.699Z,26.92
2022-08-01T11:36:56.760Z,26.89
2022-08-01T11:37:45.616Z,26.86
2022-08-01T11:38:49.581Z,26.87
2022-08-01T11:40:24.981Z,26.90
2022-08-01T11:41:39.038Z,26.98
2022-08-01T11:42:41.079Z,27.07
2022-08-01T11:44:00.715Z,27.12
2022-08-01T11:45:04.302Z,27.16
2022-08-01T11:46:06.823Z,27.15
2022-08-01T11:47:11.662Z,27.15
2022-08-01T11:48:27.582Z,27.17
2022-08-01T11:49:39.330Z,27.21
2022-08-01T11:50:42.177Z,27.27
2022-08-01T11:51:44.349Z,27.31
2022-08-01T11:52:47.129Z,27.34
2022-08-01T11:53:50.408Z,27.37
2022-08-01T11:54:56.966Z,27.39
2022-08-01T11:56:00.702Z,27.38
2022-08-01T11:57:06.156Z,27.36
2022-08-01T11:58:22.549Z,27.35
2022-08-01T11:59:38.025Z,27.35
2022-08-01T12:00:43.962Z,27.37
2022-08-01T12:01:49.098Z,27.38
2022-08-01T12:03:00.213Z,27.39
2022-08-01T12:04:02.210Z,27.41
2022-08-01T12:05:11.878Z,27.42
2022-08-01T12:06:13.994Z,27.42
2022-08-01T12:07:16.368Z,27.40
2022-08-01T12:08:34.198Z,27.38
2022-08-01T12:09:35.831Z,27.39
2022-08-01T12:10:49.409Z,27.43
2022-08-01T12:11:51.698Z,27.50
2022-08-01T12:13:00.780Z,27.60
2022-08-01T12:14:02.657Z,27.71
2022-08-01T12:15:09.898Z,27.81
2022-08-01T12:16:12.308Z,27.91
2022-08-01T12:17:14.140Z,28.04
2022-08-01T12:18:15.949Z,28.19
2022-08-01T12:19:25.594Z,28.33
2022-08-01T12:20:31.204Z,28.48
2022-08-01T12:21:33.480Z,28.60
2022-08-01T12:22:35.361Z,28.70
2022-08-01T12:23:36.989Z,28.80
2022-08-01T12:24:41.926Z,28.87
2022-08-01T12:25:48.266Z,28.91
2022-08-01T12:26:49.938Z,28.93
2022-08-01T12:27:56.000Z,28.93
2022-08-01T12:28:58.368Z,28.94
2022-08-01T12:30:02.254Z,28.98
2022-08-01T12:31:04.089Z,29.04
2022-08-01T12:32:27.962Z,29.13
2022-08-01T12:33:37.214Z,29.29
2022-08-01T12:34:39.064Z,29.40
2022-08-01T12:35:42.617Z,29.51
2022-08-01T12:36:45.071Z,29.64
2022-08-01T12:37:55.573Z,29.78
2022-08-01T12:39:00.275Z,29.93
2022-08-01T12:40:10.493Z,30.06
2022-08-01T12:41:12.663Z,30.15
2022-08-01T12:42:15.709Z,30.21
2022-08-01T12:43:27.907Z,30.26
2022-08-01T12:44:32.058Z,30.33
2022-08-01T12:45:40.671Z,30.38
2022-08-01T12:46:56.591Z,30.37
2022-08-01T12:48:00.567Z,30.34
2022-08-01T12:49:02.693Z,30.32
2022-08-01T12:50:08.645Z,30.35
2022-08-01T12:51:12.626Z,30.41
2022-08-01T12:52:15.912Z,30.47
2022-08-01T12:53:19.701Z,30.57
2022-08-01T12:54:25.781Z,30.68
2022-08-01T12:55:34.385Z,30.82
2022-08-01T12:56:37.072Z,30.95
2022-08-01T12:57:42.722Z,31.05
2022-08-01T12:58:44.472Z,31.17
2022-08-01T12:59:46.289Z,31.27
2022-08-01T13:01:02.679Z,31.39
2022-08-01T13:02:09.840Z,31.52
2022-08-01T13:03:18.006Z,31.62
2022-08-01T13:04:20.855Z,31.70
2022-08-01T13:05:25.859Z,31.74
2022-08-01T13:06:31.433Z,31.76
2022-08-01T13:07:45.607Z,31.76
2022-08-01T13:08:47.645Z,31.76
2022-08-01T13:09:53.008Z,31.74
2022-08-01T13:11:03.097Z,31.69
2022-08-01T13:12:11.132Z,31.59
2022-08-01T13:13:22.155Z,31.48
2022-08-01T13:14:30.692Z,31.32
2022-08-01T13:15:35.853Z,31.19
2022-08-01T13:16:56.710Z,31.05
2022-08-01T13:18:01.562Z,30.93
2022-08-01T13:19:03.330Z,30.82
2022-08-01T13:20:06.224Z,30.72
2022-08-01T13:21:12.023Z,30.60
2022-08-01T13:22:13.729Z,30.49
2022-08-01T13:23:22.736Z,30.38
2022-08-01T13:24:40.196Z,30.27
2022-08-01T13:26:08.542Z,30.17
2022-08-01T13:27:24.805Z,30.00
2022-08-01T13:28:28.309Z,29.86
2022-08-01T13:29:33.752Z,29.76
2022-08-01T13:30:35.450Z,29.66
2022-08-01T13:31:39.097Z,29.58
2022-08-01T13:32:41.071Z,29.47
2022-08-01T13:33:54.051Z,29.35
2022-08-01T13:35:03.958Z,29.18
2022-08-01T13:36:05.844Z,29.04
2022-08-01T13:37:07.514Z,28.90
2022-08-01T13:38:09.355Z,28.79
2022-08-01T13:39:29.702Z,28.70
2022-08-01T13:40:31.574Z,28.61
2022-08-01T13:41:35.410Z,28.56
2022-08-01T13:42:38.556Z,28.51
2022-08-01T13:43:58.979Z,28.47
2022-08-01T13:45:03.694Z,28.42
2022-08-01T13:46:05.580Z,28.38
2022-08-01T13:47:15.139Z,28.33
2022-08-01T13:48:19.778Z,28.28
2022-08-01T13:49:22.881Z,28.24
2022-08-01T13:50:24.799Z,28.19
2022-08-01T13:51:26.480Z,28.14
2022-08-01T13:52:28.266Z,28.11
2022-08-01T13:53:30.040Z,28.09
2022-08-01T13:54:32.644Z,28.08
2022-08-01T13:55:35.521Z,28.11
2022-08-01T13:56:37.456Z,28.14
2022-08-01T13:57:39.229Z,28.15
2022-08-01T13:58:40.916Z,28.17
2022-08-01T13:59:42.577Z,28.19
2022-08-01T14:00:44.602Z,28.19
2022-08-01T14:01:47.555Z,28.17
2022-08-01T14:02:49.349Z,28.18
2022-08-01T14:03:52.181Z,28.18
2022-08-01T14:04:56.565Z,28.18
2022-08-01T14:05:58.679Z,28.18
2022-08-01T14:07:04.294Z,28.18
2022-08-01T14:08:11.599Z,28.19
2022-08-01T14:09:17.804Z,28.19
2022-08-01T14:10:20.775Z,28.21